Boght Corners, New York
Current Conditions -  °F | °C
As of 12:51 AM on Sunday 26 Oct 2014 (Local Time) from KALB Reporting Station
Few Clouds Few Clouds  
Wind Chill: 49°   Ceiling: Unl
Heat Index: 49°   Visibility: 10mi
Dew Point: 45°   Wind: 0mph
Humidity: 86%   Direction: NA
Pressure: 29.51"   Gusts: NA
Location:  42.7824°N, 73.7303°W
Report Text: KALB 260451Z 00000KT 10SM FEW045 FEW055 09/07 A2951 RMK AO2 SLP993 T00940072 401670033 $
Loading
Personal Weather Stations






























Interactive Weather Map New forecast layout! Learn more

10-Day Weather Forecast

Advertisements
Track Severe Weather on mobile